sensor_id;sensor_type;location;lat;lon;timestamp;pressure;altitude;pressure_sealevel;temperature;humidity
71716;BME280;59568;52.128;5.434;2023-02-28T00:01:20;103357.06;;;0.25;85.75
71716;BME280;59568;52.128;5.434;2023-02-28T00:03:47;103346.47;;;0.28;85.61
71716;BME280;59568;52.128;5.434;2023-02-28T00:06:14;103345.50;;;0.29;85.95
71716;BME280;59568;52.128;5.434;2023-02-28T00:08:40;103347.13;;;0.30;85.78
71716;BME280;59568;52.128;5.434;2023-02-28T00:11:10;103353.84;;;0.31;85.86
71716;BME280;59568;52.128;5.434;2023-02-28T00:13:40;103354.50;;;0.33;85.73
71716;BME280;59568;52.128;5.434;2023-02-28T00:16:09;103357.59;;;0.37;86.00
71716;BME280;59568;52.128;5.434;2023-02-28T00:18:37;103354.88;;;0.38;86.03
71716;BME280;59568;52.128;5.434;2023-02-28T00:21:04;103359.53;;;0.43;85.82
71716;BME280;59568;52.128;5.434;2023-02-28T00:23:30;103361.78;;;0.46;86.08
71716;BME280;59568;52.128;5.434;2023-02-28T00:25:57;103357.28;;;0.48;86.21
71716;BME280;59568;52.128;5.434;2023-02-28T00:28:24;103359.56;;;0.51;86.00
71716;BME280;59568;52.128;5.434;2023-02-28T00:30:50;103365.06;;;0.56;86.14
71716;BME280;59568;52.128;5.434;2023-02-28T00:33:17;103354.59;;;0.58;86.24
71716;BME280;59568;52.128;5.434;2023-02-28T00:35:44;103351.72;;;0.61;86.27
71716;BME280;59568;52.128;5.434;2023-02-28T00:38:13;103352.22;;;0.65;85.90
71716;BME280;59568;52.128;5.434;2023-02-28T00:40:41;103351.09;;;0.67;85.91
71716;BME280;59568;52.128;5.434;2023-02-28T00:43:08;103356.91;;;0.69;86.06
71716;BME280;59568;52.128;5.434;2023-02-28T00:45:34;103348.84;;;0.72;86.22
71716;BME280;59568;52.128;5.434;2023-02-28T00:48:01;103353.69;;;0.75;85.94
71716;BME280;59568;52.128;5.434;2023-02-28T00:50:28;103356.91;;;0.77;86.00
71716;BME280;59568;52.128;5.434;2023-02-28T00:52:54;103355.78;;;0.80;85.71
71716;BME280;59568;52.128;5.434;2023-02-28T00:55:21;103348.56;;;0.84;86.01
71716;BME280;59568;52.128;5.434;2023-02-28T00:57:47;103345.84;;;0.85;85.99
71716;BME280;59568;52.128;5.434;2023-02-28T01:00:14;103345.50;;;0.88;86.26
71716;BME280;59568;52.128;5.434;2023-02-28T01:02:41;103346.16;;;0.90;86.28
71716;BME280;59568;52.128;5.434;2023-02-28T01:05:08;103346.00;;;0.92;86.05
71716;BME280;59568;52.128;5.434;2023-02-28T01:07:34;103351.78;;;0.94;85.92
71716;BME280;59568;52.128;5.434;2023-02-28T01:10:02;103357.59;;;0.96;85.85
71716;BME280;59568;52.128;5.434;2023-02-28T01:12:29;103356.31;;;1.00;86.30
71716;BME280;59568;52.128;5.434;2023-02-28T01:14:56;103357.94;;;1.01;86.23
71716;BME280;59568;52.128;5.434;2023-02-28T01:17:23;103341.50;;;1.02;86.24
71716;BME280;59568;52.128;5.434;2023-02-28T01:19:53;103348.94;;;1.05;86.58
71716;BME280;59568;52.128;5.434;2023-02-28T01:22:19;103350.53;;;1.06;86.03
71716;BME280;59568;52.128;5.434;2023-02-28T01:24:46;103343.44;;;1.08;86.15
71716;BME280;59568;52.128;5.434;2023-02-28T01:27:13;103347.50;;;1.11;86.54
71716;BME280;59568;52.128;5.434;2023-02-28T01:29:41;103337.84;;;1.13;86.25
71716;BME280;59568;52.128;5.434;2023-02-28T01:32:07;103343.63;;;1.15;86.36
71716;BME280;59568;52.128;5.434;2023-02-28T01:34:34;103339.28;;;1.15;86.57
71716;BME280;59568;52.128;5.434;2023-02-28T01:37:00;103343.28;;;1.18;86.35
71716;BME280;59568;52.128;5.434;2023-02-28T01:39:27;103335.41;;;1.19;86.26
71716;BME280;59568;52.128;5.434;2023-02-28T01:41:54;103338.63;;;1.22;86.13
71716;BME280;59568;52.128;5.434;2023-02-28T01:47:45;103339.91;;;1.26;85.96
71716;BME280;59568;52.128;5.434;2023-02-28T01:50:18;103329.63;;;1.26;85.78
71716;BME280;59568;52.128;5.434;2023-02-28T01:52:46;103332.03;;;1.27;85.73
71716;BME280;59568;52.128;5.434;2023-02-28T01:55:16;103329.47;;;1.27;85.48
71716;BME280;59568;52.128;5.434;2023-02-28T01:57:53;103330.91;;;1.30;85.82
71716;BME280;59568;52.128;5.434;2023-02-28T02:00:24;103329.78;;;1.32;85.43
71716;BME280;59568;52.128;5.434;2023-02-28T02:02:57;103318.66;;;1.32;85.73
71716;BME280;59568;52.128;5.434;2023-02-28T02:05:27;103316.09;;;1.32;85.63
71716;BME280;59568;52.128;5.434;2023-02-28T02:07:56;103314.31;;;1.32;85.56
71716;BME280;59568;52.128;5.434;2023-02-28T02:10:44;103313.34;;;1.33;85.39
71716;BME280;59568;52.128;5.434;2023-02-28T02:18:59;103305.47;;;1.35;85.38
71716;BME280;59568;52.128;5.434;2023-02-28T02:25:06;103311.28;;;1.37;85.81
71716;BME280;59568;52.128;5.434;2023-02-28T02:28:10;103318.03;;;1.38;85.64
71716;BME280;59568;52.128;5.434;2023-02-28T02:36:27;103316.09;;;1.40;85.63
71716;BME280;59568;52.128;5.434;2023-02-28T02:39:04;103314.31;;;1.40;85.92
71716;BME280;59568;52.128;5.434;2023-02-28T02:41:45;103317.38;;;1.44;86.01
71716;BME280;59568;52.128;5.434;2023-02-28T02:44:20;103318.34;;;1.43;86.12
71716;BME280;59568;52.128;5.434;2023-02-28T02:46:51;103319.00;;;1.45;86.09
71716;BME280;59568;52.128;5.434;2023-02-28T02:49:27;103317.69;;;1.49;86.02
71716;BME280;59568;52.128;5.434;2023-02-28T02:51:56;103312.34;;;1.51;86.03
71716;BME280;59568;52.128;5.434;2023-02-28T02:54:28;103313.19;;;1.51;86.21
71716;BME280;59568;52.128;5.434;2023-02-28T02:56:58;103318.97;;;1.53;86.02
71716;BME280;59568;52.128;5.434;2023-02-28T02:59:27;103313.81;;;1.53;86.46
71716;BME280;59568;52.128;5.434;2023-02-28T03:01:58;103318.00;;;1.54;86.52
71716;BME280;59568;52.128;5.434;2023-02-28T03:04:29;103317.69;;;1.57;86.52
71716;BME280;59568;52.128;5.434;2023-02-28T03:06:58;103311.69;;;1.57;86.60
71716;BME280;59568;52.128;5.434;2023-02-28T03:09:26;103320.91;;;1.59;86.48
71716;BME280;59568;52.128;5.434;2023-02-28T03:11:54;103322.50;;;1.60;86.98
71716;BME280;59568;52.128;5.434;2023-02-28T03:14:55;103323.13;;;1.63;86.66
71716;BME280;59568;52.128;5.434;2023-02-28T03:17:46;103318.97;;;1.62;87.02
71716;BME280;59568;52.128;5.434;2023-02-28T03:22:57;103317.03;;;1.64;86.73
71716;BME280;59568;52.128;5.434;2023-02-28T03:25:56;103314.44;;;1.64;86.93
71716;BME280;59568;52.128;5.434;2023-02-28T03:29:13;103323.78;;;1.65;86.75
71716;BME280;59568;52.128;5.434;2023-02-28T03:31:49;103324.41;;;1.67;87.47
71716;BME280;59568;52.128;5.434;2023-02-28T03:34:24;103318.63;;;1.65;87.21
71716;BME280;59568;52.128;5.434;2023-02-28T03:36:55;103324.75;;;1.64;87.28
71716;BME280;59568;52.128;5.434;2023-02-28T03:39:28;103328.78;;;1.66;87.33
71716;BME280;59568;52.128;5.434;2023-02-28T03:41:59;103323.13;;;1.63;87.41
71716;BME280;59568;52.128;5.434;2023-02-28T03:44:40;103329.28;;;1.62;87.60
71716;BME280;59568;52.128;5.434;2023-02-28T03:47:10;103337.00;;;1.62;87.52
71716;BME280;59568;52.128;5.434;2023-02-28T03:50:05;103330.22;;;1.60;87.68
71716;BME280;59568;52.128;5.434;2023-02-28T03:52:39;103338.94;;;1.59;87.86
71716;BME280;59568;52.128;5.434;2023-02-28T03:55:10;103339.09;;;1.58;87.74
71716;BME280;59568;52.128;5.434;2023-02-28T04:00:32;103341.03;;;1.56;87.55
71716;BME280;59568;52.128;5.434;2023-02-28T04:03:00;103339.25;;;1.56;87.23
71716;BME280;59568;52.128;5.434;2023-02-28T04:05:27;103339.41;;;1.55;87.33
71716;BME280;59568;52.128;5.434;2023-02-28T04:08:04;103334.59;;;1.52;87.43
71716;BME280;59568;52.128;5.434;2023-02-28T04:10:30;103333.81;;;1.51;86.95
71716;BME280;59568;52.128;5.434;2023-02-28T04:12:57;103340.53;;;1.52;86.67
71716;BME280;59568;52.128;5.434;2023-02-28T04:15:24;103349.25;;;1.51;86.30
71716;BME280;59568;52.128;5.434;2023-02-28T04:17:50;103342.47;;;1.50;85.85
71716;BME280;59568;52.128;5.434;2023-02-28T04:20:19;103340.06;;;1.49;85.39
71716;BME280;59568;52.128;5.434;2023-02-28T04:22:46;103344.75;;;1.45;85.03
71716;BME280;59568;52.128;5.434;2023-02-28T04:25:12;103340.06;;;1.40;83.38
71716;BME280;59568;52.128;5.434;2023-02-28T04:27:39;103343.63;;;1.39;82.82
71716;BME280;59568;52.128;5.434;2023-02-28T04:30:06;103343.13;;;1.36;82.19
71716;BME280;59568;52.128;5.434;2023-02-28T04:32:33;103354.56;;;1.33;81.91
71716;BME280;59568;52.128;5.434;2023-02-28T04:34:59;103354.44;;;1.35;81.78
71716;BME280;59568;52.128;5.434;2023-02-28T04:37:26;103352.81;;;1.34;81.73
71716;BME280;59568;52.128;5.434;2023-02-28T04:39:55;103345.38;;;1.31;81.33
71716;BME280;59568;52.128;5.434;2023-02-28T04:42:21;103353.09;;;1.31;81.28
71716;BME280;59568;52.128;5.434;2023-02-28T04:44:47;103355.88;;;1.29;81.45
71716;BME280;59568;52.128;5.434;2023-02-28T04:47:14;103354.25;;;1.28;81.27
71716;BME280;59568;52.128;5.434;2023-02-28T04:49:40;103348.28;;;1.28;81.50
71716;BME280;59568;52.128;5.434;2023-02-28T04:52:07;103346.66;;;1.27;81.59
71716;BME280;59568;52.128;5.434;2023-02-28T04:54:34;103346.84;;;1.25;81.54
71716;BME280;59568;52.128;5.434;2023-02-28T04:57:01;103348.78;;;1.23;81.86
71716;BME280;59568;52.128;5.434;2023-02-28T04:59:28;103362.94;;;1.19;81.63
71716;BME280;59568;52.128;5.434;2023-02-28T05:01:54;103359.88;;;1.15;81.82
71716;BME280;59568;52.128;5.434;2023-02-28T05:04:21;103356.97;;;1.10;82.17
71716;BME280;59568;52.128;5.434;2023-02-28T05:06:47;103349.56;;;1.07;82.31
71716;BME280;59568;52.128;5.434;2023-02-28T05:09:14;103345.38;;;1.06;83.26
71716;BME280;59568;52.128;5.434;2023-02-28T05:11:41;103348.09;;;1.05;83.36
71716;BME280;59568;52.128;5.434;2023-02-28T05:14:13;103347.63;;;1.01;83.68
71716;BME280;59568;52.128;5.434;2023-02-28T05:16:40;103350.22;;;1.01;84.47
71716;BME280;59568;52.128;5.434;2023-02-28T05:19:07;103352.28;;;0.97;84.46
71716;BME280;59568;52.128;5.434;2023-02-28T05:21:35;103359.38;;;0.95;84.27
71716;BME280;59568;52.128;5.434;2023-02-28T05:24:06;103356.94;;;0.94;84.72
71716;BME280;59568;52.128;5.434;2023-02-28T05:26:41;103359.66;;;0.92;85.29
71716;BME280;59568;52.128;5.434;2023-02-28T05:29:08;103351.16;;;0.92;85.37
71716;BME280;59568;52.128;5.434;2023-02-28T05:31:36;103361.44;;;0.92;85.21
71716;BME280;59568;52.128;5.434;2023-02-28T05:34:04;103362.72;;;0.88;85.65
71716;BME280;59568;52.128;5.434;2023-02-28T05:36:31;103354.34;;;0.86;85.51
71716;BME280;59568;52.128;5.434;2023-02-28T05:38:58;103358.22;;;0.82;85.65
71716;BME280;59568;52.128;5.434;2023-02-28T05:41:25;103347.91;;;0.82;85.76
71716;BME280;59568;52.128;5.434;2023-02-28T05:43:53;103352.25;;;0.81;85.78
71716;BME280;59568;52.128;5.434;2023-02-28T05:46:19;103353.34;;;0.78;85.64
71716;BME280;59568;52.128;5.434;2023-02-28T05:48:47;103364.00;;;0.75;85.89
71716;BME280;59568;52.128;5.434;2023-02-28T05:51:14;103354.00;;;0.72;86.03
71716;BME280;59568;52.128;5.434;2023-02-28T05:53:41;103355.25;;;0.68;85.97
71716;BME280;59568;52.128;5.434;2023-02-28T05:56:08;103358.81;;;0.67;86.33
71716;BME280;59568;52.128;5.434;2023-02-28T05:58:35;103358.81;;;0.67;86.41
71716;BME280;59568;52.128;5.434;2023-02-28T06:01:38;103351.09;;;0.67;86.33
71716;BME280;59568;52.128;5.434;2023-02-28T06:04:07;103362.53;;;0.65;86.58
71716;BME280;59568;52.128;5.434;2023-02-28T06:06:45;103357.38;;;0.65;86.74
71716;BME280;59568;52.128;5.434;2023-02-28T06:09:12;103352.53;;;0.62;86.33
71716;BME280;59568;52.128;5.434;2023-02-28T06:11:39;103359.09;;;0.56;87.16
71716;BME280;59568;52.128;5.434;2023-02-28T06:14:07;103352.34;;;0.55;86.76
71716;BME280;59568;52.128;5.434;2023-02-28T06:16:39;103348.00;;;0.55;86.92
71716;BME280;59568;52.128;5.434;2023-02-28T06:19:09;103354.78;;;0.56;87.40
71716;BME280;59568;52.128;5.434;2023-02-28T06:21:36;103348.81;;;0.56;87.76
71716;BME280;59568;52.128;5.434;2023-02-28T06:24:03;103349.94;;;0.53;87.63
71716;BME280;59568;52.128;5.434;2023-02-28T06:26:30;103341.56;;;0.51;88.05
71716;BME280;59568;52.128;5.434;2023-02-28T06:28:57;103342.06;;;0.55;87.82
71716;BME280;59568;52.128;5.434;2023-02-28T06:31:24;103345.56;;;0.54;87.90
71716;BME280;59568;52.128;5.434;2023-02-28T06:33:52;103343.00;;;0.54;87.96
71716;BME280;59568;52.128;5.434;2023-02-28T06:36:19;103345.56;;;0.54;88.07
71716;BME280;59568;52.128;5.434;2023-02-28T06:38:46;103347.50;;;0.52;88.51
71716;BME280;59568;52.128;5.434;2023-02-28T06:41:17;103352.97;;;0.49;88.50
71716;BME280;59568;52.128;5.434;2023-02-28T06:43:44;103352.66;;;0.52;88.83
71716;BME280;59568;52.128;5.434;2023-02-28T06:46:12;103354.44;;;0.51;89.12
71716;BME280;59568;52.128;5.434;2023-02-28T06:48:40;103351.56;;;0.54;89.30
71716;BME280;59568;52.128;5.434;2023-02-28T06:51:12;103345.28;;;0.57;89.38
71716;BME280;59568;52.128;5.434;2023-02-28T06:53:40;103354.44;;;0.59;89.83
71716;BME280;59568;52.128;5.434;2023-02-28T06:56:11;103361.69;;;0.64;89.63
71716;BME280;59568;52.128;5.434;2023-02-28T06:58:37;103365.75;;;0.67;89.67
71716;BME280;59568;52.128;5.434;2023-02-28T07:01:06;103360.25;;;0.70;89.43
71716;BME280;59568;52.128;5.434;2023-02-28T07:03:35;103367.50;;;0.74;89.58
71716;BME280;59568;52.128;5.434;2023-02-28T07:06:04;103375.72;;;0.78;89.34
71716;BME280;59568;52.128;5.434;2023-02-28T07:08:31;103368.81;;;0.78;89.45
71716;BME280;59568;52.128;5.434;2023-02-28T07:10:58;103372.06;;;0.81;89.43
71716;BME280;59568;52.128;5.434;2023-02-28T07:13:25;103379.59;;;0.82;89.59
71716;BME280;59568;52.128;5.434;2023-02-28T07:16:05;103373.16;;;0.86;89.40
71716;BME280;59568;52.128;5.434;2023-02-28T07:18:33;103370.28;;;0.89;89.53
71716;BME280;59568;52.128;5.434;2023-02-28T07:21:04;103364.81;;;0.92;89.46
71716;BME280;59568;52.128;5.434;2023-02-28T07:23:31;103368.88;;;0.95;89.15
71716;BME280;59568;52.128;5.434;2023-02-28T07:25:58;103373.03;;;0.96;89.49
71716;BME280;59568;52.128;5.434;2023-02-28T07:28:25;103385.59;;;0.99;89.42
71716;BME280;59568;52.128;5.434;2023-02-28T07:30:52;103383.03;;;0.99;89.20
71716;BME280;59568;52.128;5.434;2023-02-28T07:33:18;103374.69;;;1.05;89.65
71716;BME280;59568;52.128;5.434;2023-02-28T07:35:45;103366.63;;;1.08;89.33
71716;BME280;59568;52.128;5.434;2023-02-28T07:38:11;103375.63;;;1.12;89.21
71716;BME280;59568;52.128;5.434;2023-02-28T07:40:41;103373.72;;;1.14;89.47
71716;BME280;59568;52.128;5.434;2023-02-28T07:43:07;103379.19;;;1.19;89.35
71716;BME280;59568;52.128;5.434;2023-02-28T07:45:34;103390.94;;;1.22;89.41
71716;BME280;59568;52.128;5.434;2023-02-28T07:48:01;103390.78;;;1.24;89.27
71716;BME280;59568;52.128;5.434;2023-02-28T07:50:28;103393.38;;;1.24;89.20
71716;BME280;59568;52.128;5.434;2023-02-28T07:52:58;103384.84;;;1.23;89.01
71716;BME280;59568;52.128;5.434;2023-02-28T07:55:26;103391.09;;;1.29;88.93
71716;BME280;59568;52.128;5.434;2023-02-28T07:57:53;103386.94;;;1.36;89.00
71716;BME280;59568;52.128;5.434;2023-02-28T08:00:32;103385.16;;;1.45;89.48
71716;BME280;59568;52.128;5.434;2023-02-28T08:02:58;103387.56;;;1.54;90.12
71716;BME280;59568;52.128;5.434;2023-02-28T08:05:25;103393.06;;;1.59;89.56
71716;BME280;59568;52.128;5.434;2023-02-28T08:07:52;103408.19;;;1.63;89.42
71716;BME280;59568;52.128;5.434;2023-02-28T08:10:19;103410.47;;;1.66;89.51
71716;BME280;59568;52.128;5.434;2023-02-28T08:12:46;103413.03;;;1.74;89.81
71716;BME280;59568;52.128;5.434;2023-02-28T08:15:12;103407.38;;;1.78;89.84
71716;BME280;59568;52.128;5.434;2023-02-28T08:17:39;103402.41;;;1.85;89.46
71716;BME280;59568;52.128;5.434;2023-02-28T08:20:06;103416.56;;;1.89;89.73
71716;BME280;59568;52.128;5.434;2023-02-28T08:22:33;103413.81;;;1.91;89.06
71716;BME280;59568;52.128;5.434;2023-02-28T08:25:00;103408.97;;;1.96;89.40
71716;BME280;59568;52.128;5.434;2023-02-28T08:27:26;103399.13;;;2.08;89.01
71716;BME280;59568;52.128;5.434;2023-02-28T08:29:52;103417.16;;;2.16;88.77
71716;BME280;59568;52.128;5.434;2023-02-28T08:32:19;103405.19;;;2.23;88.47
71716;BME280;59568;52.128;5.434;2023-02-28T08:34:55;103412.28;;;2.29;88.46
71716;BME280;59568;52.128;5.434;2023-02-28T08:37:22;103396.63;;;2.31;87.63
71716;BME280;59568;52.128;5.434;2023-02-28T08:39:48;103405.66;;;2.35;86.69
71716;BME280;59568;52.128;5.434;2023-02-28T08:42:15;103412.91;;;2.39;86.26
71716;BME280;59568;52.128;5.434;2023-02-28T08:44:41;103401.28;;;2.44;86.06
71716;BME280;59568;52.128;5.434;2023-02-28T08:47:08;103399.78;;;2.49;85.12
71716;BME280;59568;52.128;5.434;2023-02-28T08:49:36;103402.56;;;2.48;84.53
71716;BME280;59568;52.128;5.434;2023-02-28T08:52:02;103391.34;;;2.64;84.59
71716;BME280;59568;52.128;5.434;2023-02-28T08:54:29;103388.38;;;2.75;84.18
71716;BME280;59568;52.128;5.434;2023-02-28T08:56:57;103393.53;;;2.75;83.14
71716;BME280;59568;52.128;5.434;2023-02-28T08:59:24;103396.75;;;2.77;82.96
71716;BME280;59568;52.128;5.434;2023-02-28T09:01:50;103406.25;;;2.85;82.60
71716;BME280;59568;52.128;5.434;2023-02-28T09:04:17;103398.13;;;2.88;81.40
71716;BME280;59568;52.128;5.434;2023-02-28T09:06:46;103395.66;;;3.03;81.25
71716;BME280;59568;52.128;5.434;2023-02-28T09:09:15;103400.53;;;3.20;79.60
71716;BME280;59568;52.128;5.434;2023-02-28T09:11:42;103393.53;;;3.52;78.99
71716;BME280;59568;52.128;5.434;2023-02-28T09:14:08;103393.22;;;3.85;77.41
71716;BME280;59568;52.128;5.434;2023-02-28T09:16:35;103396.06;;;3.90;75.76
71716;BME280;59568;52.128;5.434;2023-02-28T09:19:02;103402.59;;;4.16;74.50
71716;BME280;59568;52.128;5.434;2023-02-28T09:21:29;103399.13;;;4.24;73.16
71716;BME280;59568;52.128;5.434;2023-02-28T09:23:56;103403.06;;;4.05;71.32
71716;BME280;59568;52.128;5.434;2023-02-28T09:26:25;103398.41;;;4.15;71.72
71716;BME280;59568;52.128;5.434;2023-02-28T09:29:04;103389.41;;;4.11;69.27
71716;BME280;59568;52.128;5.434;2023-02-28T09:31:30;103401.09;;;4.07;68.58
71716;BME280;59568;52.128;5.434;2023-02-28T09:33:57;103400.47;;;4.05;67.19
71716;BME280;59568;52.128;5.434;2023-02-28T09:36:26;103394.38;;;3.97;66.88
71716;BME280;59568;52.128;5.434;2023-02-28T09:39:10;103403.41;;;4.02;67.59
71716;BME280;59568;52.128;5.434;2023-02-28T09:41:42;103403.13;;;4.11;67.21
71716;BME280;59568;52.128;5.434;2023-02-28T09:44:36;103400.97;;;4.00;65.98
71716;BME280;59568;52.128;5.434;2023-02-28T09:47:13;103407.22;;;3.91;63.67
71716;BME280;59568;52.128;5.434;2023-02-28T09:49:44;103411.16;;;4.02;63.35
71716;BME280;59568;52.128;5.434;2023-02-28T09:52:21;103411.16;;;4.02;62.43
71716;BME280;59568;52.128;5.434;2023-02-28T09:54:50;103404.84;;;4.19;61.83
71716;BME280;59568;52.128;5.434;2023-02-28T09:57:37;103409.66;;;4.37;62.39
71716;BME280;59568;52.128;5.434;2023-02-28T10:00:34;103400.88;;;4.53;60.29
71716;BME280;59568;52.128;5.434;2023-02-28T10:05:48;103402.34;;;4.77;60.51
71716;BME280;59568;52.128;5.434;2023-02-28T10:08:37;103401.63;;;5.05;60.27
71716;BME280;59568;52.128;5.434;2023-02-28T10:11:11;103396.13;;;5.36;60.68
71716;BME280;59568;52.128;5.434;2023-02-28T10:16:14;103393.34;;;5.94;58.21
71716;BME280;59568;52.128;5.434;2023-02-28T10:21:41;103387.97;;;6.30;58.36
71716;BME280;59568;52.128;5.434;2023-02-28T10:27:09;103381.25;;;6.56;57.37
71716;BME280;59568;52.128;5.434;2023-02-28T10:29:45;103380.88;;;6.59;56.90
71716;BME280;59568;52.128;5.434;2023-02-28T10:32:17;103388.84;;;6.51;55.67
71716;BME280;59568;52.128;5.434;2023-02-28T10:34:50;103384.56;;;6.30;52.88
71716;BME280;59568;52.128;5.434;2023-02-28T10:37:19;103382.28;;;6.13;53.73
71716;BME280;59568;52.128;5.434;2023-02-28T10:39:46;103381.66;;;6.05;53.46
71716;BME280;59568;52.128;5.434;2023-02-28T10:44:47;103399.66;;;6.06;54.51
71716;BME280;59568;52.128;5.434;2023-02-28T10:47:16;103388.91;;;6.16;54.24
71716;BME280;59568;52.128;5.434;2023-02-28T10:49:48;103382.91;;;6.15;52.62
71716;BME280;59568;52.128;5.434;2023-02-28T10:52:33;103388.16;;;6.22;53.35
71716;BME280;59568;52.128;5.434;2023-02-28T10:55:16;103383.13;;;6.14;52.62
71716;BME280;59568;52.128;5.434;2023-02-28T10:57:47;103376.88;;;6.08;51.98
71716;BME280;59568;52.128;5.434;2023-02-28T11:00:23;103373.25;;;6.03;51.17
71716;BME280;59568;52.128;5.434;2023-02-28T11:02:51;103373.88;;;6.05;51.51
71716;BME280;59568;52.128;5.434;2023-02-28T11:05:32;103372.66;;;6.00;50.87
71716;BME280;59568;52.128;5.434;2023-02-28T11:08:06;103376.97;;;5.93;50.85
71716;BME280;59568;52.128;5.434;2023-02-28T11:10:37;103369.75;;;5.89;50.62
71716;BME280;59568;52.128;5.434;2023-02-28T11:13:05;103352.31;;;6.04;51.31
71716;BME280;59568;52.128;5.434;2023-02-28T11:15:34;103357.31;;;6.06;49.75
71716;BME280;59568;52.128;5.434;2023-02-28T11:20:50;103357.81;;;5.94;50.58
71716;BME280;59568;52.128;5.434;2023-02-28T11:23:18;103362.69;;;6.04;50.96
71716;BME280;59568;52.128;5.434;2023-02-28T11:25:52;103361.34;;;6.22;51.62
71716;BME280;59568;52.128;5.434;2023-02-28T11:28:36;103354.25;;;6.44;50.17
71716;BME280;59568;52.128;5.434;2023-02-28T11:31:16;103356.66;;;6.38;50.29
71716;BME280;59568;52.128;5.434;2023-02-28T11:36:25;103342.28;;;6.43;49.63
71716;BME280;59568;52.128;5.434;2023-02-28T11:38:58;103333.88;;;6.40;48.52
71716;BME280;59568;52.128;5.434;2023-02-28T11:44:26;103330.97;;;6.70;49.15
71716;BME280;59568;52.128;5.434;2023-02-28T11:47:15;103326.38;;;6.86;49.05
71716;BME280;59568;52.128;5.434;2023-02-28T11:53:03;103330.31;;;6.55;47.61
71716;BME280;59568;52.128;5.434;2023-02-28T12:03:58;103332.31;;;6.59;47.96
71716;BME280;59568;52.128;5.434;2023-02-28T12:06:40;103326.31;;;6.59;48.13
71716;BME280;59568;52.128;5.434;2023-02-28T12:09:34;103327.16;;;6.66;46.75
71716;BME280;59568;52.128;5.434;2023-02-28T12:12:22;103318.34;;;6.67;47.12
71716;BME280;59568;52.128;5.434;2023-02-28T12:14:59;103315.38;;;6.70;47.33
71716;BME280;59568;52.128;5.434;2023-02-28T12:18:01;103319.34;;;6.79;47.79
71716;BME280;59568;52.128;5.434;2023-02-28T12:20:34;103300.19;;;6.87;47.11
71716;BME280;59568;52.128;5.434;2023-02-28T12:25:55;103316.97;;;7.11;47.57
71716;BME280;59568;52.128;5.434;2023-02-28T12:28:32;103312.38;;;7.07;45.99
71716;BME280;59568;52.128;5.434;2023-02-28T12:31:08;103300.19;;;6.87;45.60
71716;BME280;59568;52.128;5.434;2023-02-28T12:33:40;103287.19;;;6.94;46.33
71716;BME280;59568;52.128;5.434;2023-02-28T12:36:14;103305.16;;;7.02;46.03
71716;BME280;59568;52.128;5.434;2023-02-28T12:38:48;103297.97;;;7.04;46.31
71716;BME280;59568;52.128;5.434;2023-02-28T12:41:24;103304.78;;;7.12;46.36
71716;BME280;59568;52.128;5.434;2023-02-28T12:44:00;103309.78;;;7.27;46.16
71716;BME280;59568;52.128;5.434;2023-02-28T12:46:44;103295.19;;;7.12;46.24
71716;BME280;59568;52.128;5.434;2023-02-28T12:49:17;103293.38;;;7.13;46.10
71716;BME280;59568;52.128;5.434;2023-02-28T12:51:45;103291.56;;;7.20;46.52
71716;BME280;59568;52.128;5.434;2023-02-28T12:54:21;103304.97;;;7.24;45.66
71716;BME280;59568;52.128;5.434;2023-02-28T12:59:27;103284.38;;;7.15;45.57
71716;BME280;59568;52.128;5.434;2023-02-28T13:10:51;103278.38;;;6.95;45.89
71716;BME280;59568;52.128;5.434;2023-02-28T13:13:25;103273.78;;;7.10;45.51
71716;BME280;59568;52.128;5.434;2023-02-28T13:16:05;103267.16;;;7.28;46.88
71716;BME280;59568;52.128;5.434;2023-02-28T13:21:00;103274.38;;;7.12;44.57
71716;BME280;59568;52.128;5.434;2023-02-28T13:23:57;103273.00;;;6.96;44.97
71716;BME280;59568;52.128;5.434;2023-02-28T13:31:26;103254.16;;;7.28;45.14
71716;BME280;59568;52.128;5.434;2023-02-28T13:36:32;103258.53;;;7.40;44.80
71716;BME280;59568;52.128;5.434;2023-02-28T13:39:01;103252.53;;;7.33;45.04
71716;BME280;59568;52.128;5.434;2023-02-28T13:44:04;103245.13;;;7.30;44.62
71716;BME280;59568;52.128;5.434;2023-02-28T13:46:33;103250.75;;;7.27;43.80
71716;BME280;59568;52.128;5.434;2023-02-28T13:51:56;103244.78;;;7.07;44.20
71716;BME280;59568;52.128;5.434;2023-02-28T13:54:54;103247.19;;;7.02;43.07
71716;BME280;59568;52.128;5.434;2023-02-28T14:03:07;103242.78;;;6.95;42.79
71716;BME280;59568;52.128;5.434;2023-02-28T14:05:37;103231.81;;;6.87;43.68
71716;BME280;59568;52.128;5.434;2023-02-28T14:08:15;103232.81;;;6.86;44.21
71716;BME280;59568;52.128;5.434;2023-02-28T14:10:46;103236.00;;;6.88;43.81
71716;BME280;59568;52.128;5.434;2023-02-28T14:13:42;103228.63;;;6.85;43.70
71716;BME280;59568;52.128;5.434;2023-02-28T14:16:14;103230.03;;;6.80;44.05
71716;BME280;59568;52.128;5.434;2023-02-28T14:19:22;103221.41;;;6.80;43.27
71716;BME280;59568;52.128;5.434;2023-02-28T14:27:17;103218.22;;;6.85;44.26
71716;BME280;59568;52.128;5.434;2023-02-28T14:32:33;103217.59;;;6.76;45.14
71716;BME280;59568;52.128;5.434;2023-02-28T14:37:46;103217.41;;;6.77;44.77
71716;BME280;59568;52.128;5.434;2023-02-28T14:40:27;103214.81;;;6.84;44.87
71716;BME280;59568;52.128;5.434;2023-02-28T14:43:03;103215.22;;;6.74;44.60
71716;BME280;59568;52.128;5.434;2023-02-28T14:45:32;103215.63;;;6.65;44.31
71716;BME280;59568;52.128;5.434;2023-02-28T14:48:01;103211.63;;;6.62;44.37
71716;BME280;59568;52.128;5.434;2023-02-28T14:50:35;103212.41;;;6.56;44.62
71716;BME280;59568;52.128;5.434;2023-02-28T14:53:02;103208.22;;;6.55;44.40
71716;BME280;59568;52.128;5.434;2023-02-28T14:55:32;103210.59;;;6.50;44.45
71716;BME280;59568;52.128;5.434;2023-02-28T14:58:05;103211.03;;;6.47;44.68
71716;BME280;59568;52.128;5.434;2023-02-28T15:00:35;103212.59;;;6.41;44.85
71716;BME280;59568;52.128;5.434;2023-02-28T15:05:56;103209.81;;;6.36;45.30
71716;BME280;59568;52.128;5.434;2023-02-28T15:08:25;103210.41;;;6.25;45.30